Time;durP1;ratioP1;P1;durP2;ratioP2;P2;SDS_P1;SDS_P2;PMS_P1;PMS_P2;Temp;Humidity;BMP_temperature;BMP_pressure;BME280_temperature;BME280_humidity;BME280_pressure;Samples;Min_cycle;Max_cycle;Signal;HPM_P1;HPM_P2
2022/05/01 00:00:51;;;;;;;1.25;1.25;;;19.60;54.40;;;;;;4975036;28;20416;-16
2022/05/01 00:03:33;;;;;;;1.33;1.33;;;19.60;54.40;;;;;;4973844;28;20416;-16
2022/05/01 00:06:04;;;;;;;1.60;1.50;;;19.60;54.10;;;;;;4968127;28;20082;-16
2022/05/01 00:08:30;;;;;;;1.30;1.30;;;19.60;54.10;;;;;;4971610;28;20126;-16
2022/05/01 00:10:55;;;;;;;1.50;1.40;;;19.60;54.10;;;;;;4961473;28;20524;-16
2022/05/01 00:13:23;;;;;;;1.40;1.40;;;19.60;54.30;;;;;;4979458;28;20416;-16
2022/05/01 00:15:49;;;;;;;1.88;1.77;;;19.60;54.30;;;;;;4969006;28;20175;-18
2022/05/01 00:18:15;;;;;;;1.50;1.40;;;19.60;54.20;;;;;;4958709;28;20051;-16
2022/05/01 00:20:41;;;;;;;1.67;1.58;;;19.60;54.20;;;;;;4968365;28;20053;-16
2022/05/01 00:23:06;;;;;;;1.58;1.48;;;19.60;54.30;;;;;;4978455;28;20054;-16
2022/05/01 00:25:32;;;;;;;1.45;1.45;;;19.60;54.10;;;;;;4979360;28;20336;-16
2022/05/01 00:27:58;;;;;;;1.20;1.20;;;19.60;54.30;;;;;;4967564;28;20170;-16
2022/05/01 00:30:26;;;;;;;1.73;1.63;;;19.60;54.20;;;;;;4990522;28;20399;-16
2022/05/01 00:38:24;;;;;;;1.40;1.40;;;19.50;54.10;;;;;;4959162;28;20114;-16
2022/05/01 00:40:50;;;;;;;1.90;1.80;;;19.50;54.10;;;;;;4959048;28;20043;-17
2022/05/01 00:43:16;;;;;;;2.03;1.80;;;19.50;54.20;;;;;;4959936;28;20074;-16
2022/05/01 00:45:41;;;;;;;1.05;1.05;;;19.50;54.20;;;;;;4976018;28;20047;-16
2022/05/01 00:48:07;;;;;;;1.60;1.50;;;19.50;54.30;;;;;;4978353;28;20046;-16
2022/05/01 00:50:33;;;;;;;1.40;1.40;;;19.50;54.20;;;;;;4978904;28;20047;-16
2022/05/01 00:52:58;;;;;;;1.60;1.50;;;19.50;54.10;;;;;;4974141;28;20039;-16
2022/05/01 00:55:24;;;;;;;1.17;1.17;;;19.50;54.30;;;;;;4990256;28;20696;-16
2022/05/01 00:57:50;;;;;;;1.45;1.40;;;19.50;54.20;;;;;;4974304;28;20135;-16
2022/05/01 01:00:16;;;;;;;1.33;1.33;;;19.50;54.30;;;;;;4989430;28;20118;-16
2022/05/01 01:02:42;;;;;;;1.60;1.50;;;19.50;54.30;;;;;;4959771;28;20056;-16
2022/05/01 01:05:08;;;;;;;1.30;1.30;;;19.50;54.20;;;;;;4958675;28;20508;-16
2022/05/01 01:07:34;;;;;;;1.50;1.40;;;19.50;54.20;;;;;;4959531;28;20049;-17
2022/05/01 01:10:00;;;;;;;1.50;1.50;;;19.50;54.30;;;;;;4958567;28;20039;-17
2022/05/01 01:15:10;;;;;;;;;;;19.50;54.20;;;;;;4985206;28;20050;-16
2022/05/01 01:17:37;;;;;;;1.45;1.35;;;19.50;54.30;;;;;;4958286;28;19915;-16
2022/05/01 01:20:11;;;;;;;1.52;1.42;;;19.50;54.30;;;;;;4958618;28;20047;-16
2022/05/01 01:22:37;;;;;;;1.60;1.60;;;19.50;54.90;;;;;;4958979;28;20071;-17
2022/05/01 01:25:03;;;;;;;1.70;1.63;;;19.50;54.10;;;;;;4958650;28;20472;-16
2022/05/01 01:27:29;;;;;;;1.77;1.67;;;19.40;54.20;;;;;;4989511;28;20047;-16
2022/05/01 01:32:39;;;;;;;;;;;19.50;54.30;;;;;;4959221;28;20063;-16
2022/05/01 01:35:06;;;;;;;2.13;1.60;;;19.50;54.20;;;;;;4956678;28;19918;-16
2022/05/01 01:37:33;;;;;;;1.80;1.70;;;19.40;54.40;;;;;;4958610;28;20039;-16
2022/05/01 01:39:58;;;;;;;1.65;1.55;;;19.40;54.30;;;;;;4972391;28;20544;-16
2022/05/01 01:42:24;;;;;;;1.88;1.23;;;19.40;54.20;;;;;;4958765;28;20484;-16
2022/05/01 01:44:50;;;;;;;1.45;1.35;;;19.40;54.40;;;;;;4973062;28;20047;-16
2022/05/01 01:47:15;;;;;;;1.40;1.40;;;19.50;54.30;;;;;;4978564;28;20051;-16
2022/05/01 01:49:41;;;;;;;1.00;1.00;;;19.40;54.20;;;;;;4941152;28;20497;-16
2022/05/01 01:52:07;;;;;;;1.92;1.50;;;19.40;54.30;;;;;;4957924;28;20055;-16
2022/05/01 01:54:32;;;;;;;1.35;1.35;;;19.40;54.20;;;;;;4958378;28;20580;-16
2022/05/01 01:56:59;;;;;;;1.40;1.40;;;19.40;54.50;;;;;;4957561;28;20051;-16
2022/05/01 01:59:24;;;;;;;1.38;1.38;;;19.50;54.20;;;;;;4958346;28;20133;-16
2022/05/01 02:01:50;;;;;;;1.58;1.50;;;19.40;54.20;;;;;;4958164;28;20074;-16
2022/05/01 02:04:16;;;;;;;1.52;1.50;;;19.40;54.30;;;;;;4988499;28;20044;-16
2022/05/01 02:06:43;;;;;;;1.30;1.30;;;19.40;54.30;;;;;;4958064;28;20043;-16
2022/05/01 02:09:09;;;;;;;1.60;1.60;;;19.40;54.30;;;;;;4958047;28;20043;-16
2022/05/01 02:11:35;;;;;;;1.73;1.63;;;19.40;54.30;;;;;;4958074;28;20538;-16
2022/05/01 02:14:01;;;;;;;1.60;1.50;;;19.40;54.30;;;;;;4967612;28;20820;-16
2022/05/01 02:16:27;;;;;;;1.75;1.67;;;19.40;54.50;;;;;;4977294;28;20078;-16
2022/05/01 02:18:52;;;;;;;1.40;1.40;;;19.40;54.20;;;;;;4958947;28;20587;-16
2022/05/01 02:21:36;;;;;;;1.50;1.50;;;19.40;54.70;;;;;;4957198;28;20108;-16
2022/05/01 02:24:12;;;;;;;1.83;1.73;;;19.40;54.40;;;;;;4961051;28;20034;-16
2022/05/01 02:26:38;;;;;;;1.50;1.40;;;19.40;54.40;;;;;;4977153;28;20492;-17
2022/05/01 02:29:12;;;;;;;1.40;1.40;;;19.40;54.20;;;;;;4963479;28;20047;-16
2022/05/01 02:31:41;;;;;;;1.40;1.40;;;19.40;54.20;;;;;;4957632;28;20057;-16
2022/05/01 02:34:07;;;;;;;1.23;1.15;;;19.40;54.30;;;;;;4957389;28;20070;-16
2022/05/01 02:36:33;;;;;;;1.40;1.40;;;19.40;54.30;;;;;;4957664;28;20074;-16
2022/05/01 02:38:59;;;;;;;1.45;1.35;;;19.40;54.40;;;;;;4957021;28;20039;-17
2022/05/01 02:41:25;;;;;;;1.10;1.10;;;19.30;54.20;;;;;;4957220;28;20055;-16
2022/05/01 02:43:50;;;;;;;1.40;1.40;;;19.40;54.40;;;;;;4956196;28;20043;-17
2022/05/01 02:46:16;;;;;;;1.35;1.35;;;19.40;54.40;;;;;;4966074;28;20047;-15
2022/05/01 02:48:42;;;;;;;1.33;1.33;;;19.40;54.40;;;;;;4976761;28;20043;-16
2022/05/01 02:51:08;;;;;;;1.77;1.73;;;19.40;54.40;;;;;;4976215;28;20078;-16
2022/05/01 02:53:33;;;;;;;1.50;1.50;;;19.30;54.40;;;;;;4971371;28;20058;-16
2022/05/01 02:56:02;;;;;;;1.30;1.30;;;19.30;54.50;;;;;;4956735;28;20057;-17
2022/05/01 02:58:28;;;;;;;1.30;1.30;;;19.30;54.30;;;;;;4957230;28;20444;-16
2022/05/01 03:00:54;;;;;;;1.10;1.10;;;19.30;54.50;;;;;;4988533;28;20083;-16
2022/05/01 03:03:20;;;;;;;1.05;1.05;;;19.30;54.30;;;;;;4956485;28;20043;-16
2022/05/01 03:05:45;;;;;;;1.42;1.42;;;19.30;54.30;;;;;;4957249;28;20043;-16
2022/05/01 03:08:12;;;;;;;1.30;1.30;;;19.30;54.30;;;;;;4956344;28;20079;-17
2022/05/01 03:10:38;;;;;;;1.30;1.30;;;19.30;54.20;;;;;;4956067;28;20043;-16
2022/05/01 03:13:04;;;;;;;1.48;1.38;;;19.30;54.50;;;;;;4959781;28;20042;-16
2022/05/01 03:15:29;;;;;;;1.52;1.45;;;19.30;55.00;;;;;;4975047;28;20096;-16
2022/05/01 03:23:23;;;;;;;;;;;19.30;54.40;;;;;;4956969;28;20129;-16
2022/05/01 03:25:49;;;;;;;0.95;0.95;;;19.30;54.50;;;;;;4957120;28;19914;-16
2022/05/01 03:28:15;;;;;;;1.25;1.25;;;19.30;54.50;;;;;;4956503;28;20047;-16
2022/05/01 03:30:40;;;;;;;1.20;1.20;;;19.30;54.40;;;;;;4957151;28;20047;-17
2022/05/01 03:33:07;;;;;;;1.40;1.30;;;19.20;54.50;;;;;;4956742;28;20517;-16
2022/05/01 03:35:35;;;;;;;0.98;0.98;;;19.20;54.20;;;;;;4957325;28;20508;-16
2022/05/01 03:38:06;;;;;;;1.52;1.42;;;19.20;54.30;;;;;;4956302;28;20397;-16
2022/05/01 03:40:35;;;;;;;1.42;1.40;;;19.20;54.30;;;;;;4958978;28;20071;-16
2022/05/01 03:43:02;;;;;;;1.52;1.50;;;19.20;54.10;;;;;;4961037;28;20249;-16
2022/05/01 03:45:28;;;;;;;1.40;1.40;;;19.20;54.40;;;;;;4962868;28;20046;-16
2022/05/01 03:47:54;;;;;;;1.10;1.10;;;19.20;54.30;;;;;;4972319;28;20051;-16
2022/05/01 03:50:19;;;;;;;1.30;1.30;;;19.20;54.10;;;;;;4960129;28;20035;-16
2022/05/01 03:52:45;;;;;;;1.85;1.75;;;19.20;54.50;;;;;;4960627;28;20040;-16
2022/05/01 03:55:11;;;;;;;1.40;1.40;;;19.20;54.50;;;;;;4959924;28;20415;-16
2022/05/01 03:57:37;;;;;;;1.60;1.50;;;19.20;54.60;;;;;;4960636;28;20046;-16
2022/05/01 04:00:10;;;;;;;1.25;1.23;;;19.20;54.60;;;;;;4959752;28;20054;-16
2022/05/01 04:02:45;;;;;;;1.30;1.30;;;19.20;54.80;;;;;;4990570;28;20047;-16
2022/05/01 04:05:12;;;;;;;1.27;1.27;;;19.10;54.80;;;;;;4959265;28;20053;-16
2022/05/01 04:07:38;;;;;;;1.10;1.10;;;19.20;54.50;;;;;;4959921;28;20090;-16
2022/05/01 04:10:04;;;;;;;1.48;1.38;;;19.20;54.50;;;;;;4959440;28;20820;-16
2022/05/01 04:12:36;;;;;;;1.73;1.63;;;19.20;54.50;;;;;;4960212;28;20079;-16
2022/05/01 04:15:03;;;;;;;2.00;1.40;;;19.20;54.70;;;;;;4978685;28;20039;-16
2022/05/01 04:17:29;;;;;;;1.42;1.40;;;19.20;54.30;;;;;;4978979;28;20132;-17
2022/05/01 04:19:55;;;;;;;1.08;1.08;;;19.20;54.40;;;;;;4974120;28;20098;-15
2022/05/01 04:22:21;;;;;;;1.35;1.35;;;19.20;54.60;;;;;;4959398;28;20043;-16
2022/05/01 04:24:47;;;;;;;1.30;1.30;;;19.20;54.30;;;;;;4960080;28;20089;-16
2022/05/01 04:27:13;;;;;;;1.25;1.25;;;19.20;54.60;;;;;;4959589;28;20055;-16
2022/05/01 04:29:40;;;;;;;1.02;1.02;;;19.20;54.40;;;;;;4959694;28;20187;-16
2022/05/01 04:32:06;;;;;;;1.30;1.30;;;19.20;54.50;;;;;;4989855;28;20043;-16
2022/05/01 04:34:35;;;;;;;1.25;1.25;;;19.20;54.50;;;;;;4990775;28;20046;-16
2022/05/01 04:37:01;;;;;;;1.20;1.20;;;19.20;54.30;;;;;;4959471;28;20046;-16
2022/05/01 04:39:27;;;;;;;1.50;1.40;;;19.20;54.50;;;;;;4959156;28;20048;-16
2022/05/01 04:41:53;;;;;;;1.20;1.20;;;19.10;54.40;;;;;;4959868;28;20567;-16
2022/05/01 04:44:19;;;;;;;1.35;1.25;;;19.20;54.30;;;;;;4958707;28;20058;-16
2022/05/01 04:46:49;;;;;;;1.27;1.27;;;19.20;54.90;;;;;;4972766;28;20035;-16
2022/05/01 04:49:16;;;;;;;1.00;1.00;;;19.10;54.60;;;;;;4964672;28;20050;-16
2022/05/01 04:51:42;;;;;;;1.00;1.00;;;19.10;54.40;;;;;;4958186;28;20039;-16
2022/05/01 04:54:08;;;;;;;1.30;1.15;;;19.10;54.30;;;;;;4958964;28;20038;-17
2022/05/01 04:59:17;;;;;;;1.10;1.10;;;19.20;54.40;;;;;;4958700;28;20070;-17
2022/05/01 05:01:43;;;;;;;1.20;1.20;;;19.10;54.30;;;;;;4966248;28;20538;-16
2022/05/01 05:04:08;;;;;;;1.10;1.10;;;19.10;54.20;;;;;;4978141;28;20125;-17
2022/05/01 05:06:34;;;;;;;1.30;1.30;;;19.10;54.40;;;;;;4978571;28;20043;-17
2022/05/01 05:11:44;;;;;;;;;;;19.10;54.50;;;;;;4965887;28;20542;-16
2022/05/01 05:14:10;;;;;;;1.02;1.02;;;19.10;54.60;;;;;;4970154;28;20000;-16
2022/05/01 05:16:35;;;;;;;1.30;1.30;;;19.10;54.70;;;;;;4978438;28;20503;-16
2022/05/01 05:19:01;;;;;;;1.13;1.13;;;19.10;54.50;;;;;;4978459;28;20503;-16
2022/05/01 05:21:27;;;;;;;1.10;1.10;;;19.10;54.50;;;;;;4972398;28;20057;-16
2022/05/01 05:23:54;;;;;;;1.00;1.00;;;19.10;54.70;;;;;;4958986;28;20074;-16
2022/05/01 05:26:19;;;;;;;1.60;1.50;;;19.10;54.60;;;;;;4988777;28;20047;-16
2022/05/01 05:28:45;;;;;;;1.00;1.00;;;19.10;54.50;;;;;;4958715;28;20057;-16
2022/05/01 05:31:10;;;;;;;1.00;1.00;;;19.10;54.60;;;;;;4958584;28;20051;-16
2022/05/01 05:33:36;;;;;;;1.05;1.05;;;19.10;54.60;;;;;;4958878;28;20166;-16
2022/05/01 05:36:02;;;;;;;1.58;1.15;;;19.00;54.50;;;;;;4958775;28;20043;-16
2022/05/01 05:38:27;;;;;;;1.10;1.10;;;19.10;54.60;;;;;;4984862;28;20054;-16
2022/05/01 05:40:53;;;;;;;1.00;1.00;;;19.10;55.10;;;;;;4957228;28;20110;-16
2022/05/01 05:43:19;;;;;;;0.98;0.98;;;19.10;54.60;;;;;;4957931;28;20051;-16
2022/05/01 05:45:45;;;;;;;0.90;0.90;;;19.10;55.20;;;;;;4622490;28;9999991;-16
2022/05/01 05:48:11;;;;;;;1.13;1.10;;;19.10;55.20;;;;;;4970995;28;20416;-17
2022/05/01 05:50:36;;;;;;;1.33;1.30;;;19.10;55.50;;;;;;4972219;28;20147;-16
2022/05/01 05:53:02;;;;;;;1.10;1.10;;;19.10;54.90;;;;;;4981844;28;20042;-16
2022/05/01 05:55:33;;;;;;;1.20;1.20;;;19.10;54.40;;;;;;4993441;28;20051;-16
2022/05/01 05:57:59;;;;;;;1.33;1.23;;;19.10;54.40;;;;;;4973364;28;20084;-17
2022/05/01 06:00:25;;;;;;;1.00;1.00;;;19.10;55.00;;;;;;4961675;28;20389;-16
2022/05/01 06:02:50;;;;;;;1.00;1.00;;;19.10;55.10;;;;;;4965594;28;20207;-16
2022/05/01 06:05:16;;;;;;;1.02;1.02;;;19.10;54.90;;;;;;4971260;28;20047;-16
2022/05/01 06:07:41;;;;;;;0.90;0.90;;;19.10;55.10;;;;;;4977795;28;20459;-15
2022/05/01 06:10:07;;;;;;;1.40;1.30;;;19.10;55.10;;;;;;4971112;28;20129;-16
2022/05/01 06:12:40;;;;;;;1.27;1.27;;;19.10;55.00;;;;;;4971500;28;20051;-16
2022/05/01 06:15:07;;;;;;;1.52;1.50;;;19.10;55.30;;;;;;4971739;28;20504;-16
2022/05/01 06:17:32;;;;;;;1.52;1.42;;;19.10;55.10;;;;;;4970000;28;20047;-16
2022/05/01 06:19:58;;;;;;;1.65;1.55;;;19.10;55.20;;;;;;4969506;28;20042;-16
2022/05/01 06:22:23;;;;;;;1.23;1.23;;;19.10;55.30;;;;;;4970389;28;20749;-16
2022/05/01 06:24:49;;;;;;;1.48;1.48;;;19.10;55.20;;;;;;4969486;28;20074;-16
2022/05/01 06:27:15;;;;;;;1.05;1.05;;;19.10;55.40;;;;;;4971651;28;20119;-17
2022/05/01 06:29:41;;;;;;;1.05;1.05;;;19.10;55.20;;;;;;4965836;28;20031;-17
2022/05/01 06:32:07;;;;;;;1.30;1.30;;;19.10;55.40;;;;;;4969398;28;20239;-17
2022/05/01 06:34:35;;;;;;;1.23;1.15;;;19.10;55.50;;;;;;4965775;28;20058;-16
2022/05/01 06:37:00;;;;;;;1.45;1.35;;;19.20;55.30;;;;;;4992692;28;20043;-16
2022/05/01 06:39:26;;;;;;;1.95;0.90;;;19.10;55.40;;;;;;4971378;28;20054;-16
2022/05/01 06:41:52;;;;;;;1.00;1.00;;;19.20;55.30;;;;;;4972793;28;20661;-16
2022/05/01 06:44:17;;;;;;;1.23;1.23;;;19.20;55.20;;;;;;4969711;28;20047;-16
2022/05/01 06:46:43;;;;;;;1.10;1.10;;;19.20;55.10;;;;;;4967058;28;20073;-16
2022/05/01 06:49:08;;;;;;;1.08;1.08;;;19.20;55.10;;;;;;4969686;28;20214;-16
2022/05/01 06:51:34;;;;;;;0.88;0.88;;;19.20;55.20;;;;;;4970192;28;20042;-16
2022/05/01 06:54:00;;;;;;;1.17;1.08;;;19.20;55.10;;;;;;4970739;28;20046;-16
2022/05/01 06:56:25;;;;;;;2.00;1.23;;;19.20;54.90;;;;;;4969330;28;20610;-17
2022/05/01 06:58:51;;;;;;;1.20;1.20;;;19.20;54.90;;;;;;4970152;28;20068;-17
2022/05/01 07:01:16;;;;;;;1.10;1.10;;;19.20;55.00;;;;;;4970381;28;20046;-16
2022/05/01 07:03:42;;;;;;;1.15;1.15;;;19.30;55.00;;;;;;4963539;28;20417;-16
2022/05/01 07:06:07;;;;;;;1.00;1.00;;;19.20;54.80;;;;;;4966687;28;20043;-16
2022/05/01 07:08:33;;;;;;;1.02;1.00;;;19.30;54.70;;;;;;4961975;28;20055;-16
2022/05/01 07:10:59;;;;;;;1.27;1.27;;;19.30;54.80;;;;;;4959845;28;20042;-17
2022/05/01 07:13:24;;;;;;;1.00;1.00;;;19.30;54.70;;;;;;4965199;28;20117;-17
2022/05/01 07:15:50;;;;;;;1.10;1.10;;;19.30;54.60;;;;;;4968787;28;20043;-16
2022/05/01 07:18:15;;;;;;;1.20;1.20;;;19.40;54.50;;;;;;4966268;28;20089;-16
2022/05/01 07:20:41;;;;;;;1.20;1.20;;;19.40;54.30;;;;;;4973443;28;20041;-16
2022/05/01 07:23:07;;;;;;;0.93;0.93;;;19.50;54.30;;;;;;4966939;28;20050;-16
2022/05/01 07:25:32;;;;;;;1.10;1.10;;;19.40;54.20;;;;;;4963171;28;20085;-16
2022/05/01 07:27:58;;;;;;;1.20;1.20;;;19.40;54.30;;;;;;4974928;28;20081;-17
2022/05/01 07:30:24;;;;;;;1.13;1.10;;;19.50;54.20;;;;;;4972486;28;20455;-16
2022/05/01 07:32:49;;;;;;;0.95;0.95;;;19.40;54.10;;;;;;4974578;28;20081;-17
2022/05/01 07:35:15;;;;;;;0.73;0.73;;;19.50;54.10;;;;;;4962110;28;20054;-18
2022/05/01 07:37:40;;;;;;;0.82;0.82;;;19.50;54.00;;;;;;4976459;28;20106;-16
2022/05/01 07:40:07;;;;;;;0.80;0.80;;;19.50;53.90;;;;;;4968108;28;20122;-17
2022/05/01 07:42:33;;;;;;;0.95;0.95;;;19.50;53.90;;;;;;4969480;28;20043;-16
2022/05/01 07:44:59;;;;;;;1.23;1.00;;;19.50;53.70;;;;;;4971205;28;20197;-17
2022/05/01 07:47:24;;;;;;;1.15;1.00;;;19.60;54.00;;;;;;4973974;28;20047;-17
2022/05/01 07:49:50;;;;;;;0.85;0.85;;;19.60;54.40;;;;;;4974269;28;20045;-17
2022/05/01 07:52:16;;;;;;;1.00;1.00;;;19.60;53.90;;;;;;4963780;28;20705;-16
2022/05/01 07:54:42;;;;;;;1.20;1.10;;;19.60;54.10;;;;;;4974557;28;20489;-16
2022/05/01 07:57:08;;;;;;;0.90;0.90;;;19.60;53.90;;;;;;4972743;28;20382;-17
2022/05/01 07:59:34;;;;;;;1.30;1.25;;;19.60;53.90;;;;;;4976190;28;20042;-18
2022/05/01 08:02:00;;;;;;;1.67;1.20;;;19.60;53.80;;;;;;4959681;28;20047;-19
2022/05/01 08:04:28;;;;;;;2.58;1.30;;;19.60;53.30;;;;;;4962527;28;20065;-18
2022/05/01 08:06:58;;;;;;;0.90;0.90;;;19.50;53.10;;;;;;4961934;28;20062;-18
2022/05/01 08:09:24;;;;;;;1.20;1.20;;;19.50;53.80;;;;;;4961442;28;20051;-18
2022/05/01 08:11:50;;;;;;;1.05;1.05;;;19.60;53.90;;;;;;4963079;28;20043;-19
2022/05/01 08:14:15;;;;;;;0.90;0.90;;;19.70;53.90;;;;;;4962835;28;20058;-18
2022/05/01 08:16:41;;;;;;;0.93;0.93;;;19.70;53.60;;;;;;4963174;28;20463;-18
2022/05/01 08:21:52;;;;;;;0.75;0.75;;;19.80;53.50;;;;;;4961348;28;20093;-19
2022/05/01 08:24:18;;;;;;;1.00;1.00;;;19.80;53.40;;;;;;4963654;28;20051;-18
2022/05/01 08:26:47;;;;;;;1.05;1.05;;;19.80;53.10;;;;;;4962412;28;20059;-18
2022/05/01 08:29:14;;;;;;;0.95;0.95;;;19.80;53.10;;;;;;4962225;28;20628;-19
2022/05/01 08:31:40;;;;;;;1.10;1.10;;;19.90;53.00;;;;;;4963122;28;20111;-18
2022/05/01 08:34:07;;;;;;;1.08;1.00;;;19.90;53.00;;;;;;4964202;28;20097;-18
2022/05/01 08:36:33;;;;;;;0.95;0.95;;;19.90;52.90;;;;;;4961199;28;20058;-18
2022/05/01 08:38:59;;;;;;;0.95;0.88;;;19.90;52.80;;;;;;4961306;28;20059;-18
2022/05/01 08:41:25;;;;;;;0.93;0.93;;;19.90;52.50;;;;;;4962343;28;20515;-18
2022/05/01 08:43:51;;;;;;;0.80;0.80;;;19.90;52.00;;;;;;4962624;28;20059;-18
2022/05/01 08:46:37;;;;;;;0.90;0.90;;;20.00;52.60;;;;;;4961001;28;20605;-16
2022/05/01 08:49:04;;;;;;;1.27;0.80;;;20.00;52.60;;;;;;4961656;28;20038;-17
2022/05/01 08:51:35;;;;;;;0.80;0.80;;;20.10;52.50;;;;;;4963120;28;20070;-16
2022/05/01 08:54:11;;;;;;;0.90;0.90;;;20.10;51.70;;;;;;4963675;28;20522;-17
2022/05/01 08:56:38;;;;;;;1.25;1.20;;;20.10;51.20;;;;;;4961366;28;20054;-16
2022/05/01 08:59:09;;;;;;;1.02;1.02;;;20.00;50.90;;;;;;4961367;28;20150;-16
2022/05/01 09:01:35;;;;;;;1.10;0.88;;;20.10;51.80;;;;;;4962935;28;20214;-17
2022/05/01 09:04:01;;;;;;;0.95;0.90;;;20.10;51.70;;;;;;4963083;28;20050;-18
2022/05/01 09:06:27;;;;;;;2.22;1.10;;;20.10;51.30;;;;;;4962404;28;20050;-17
2022/05/01 09:08:53;;;;;;;1.00;1.00;;;20.10;51.10;;;;;;4961710;28;20648;-16
2022/05/01 09:14:03;;;;;;;1.35;1.35;;;20.00;49.60;;;;;;4962122;28;20069;-16
2022/05/01 09:16:29;;;;;;;1.40;1.30;;;20.10;50.10;;;;;;4962844;28;20042;-17
2022/05/01 09:18:55;;;;;;;1.58;1.20;;;20.00;48.40;;;;;;4958786;28;20065;-17
2022/05/01 09:21:20;;;;;;;0.90;0.90;;;20.10;48.90;;;;;;4962754;28;20046;-17
2022/05/01 09:23:47;;;;;;;1.48;1.10;;;20.10;49.40;;;;;;4958744;28;20063;-17
2022/05/01 09:26:17;;;;;;;1.15;1.15;;;20.10;48.10;;;;;;4963805;28;20046;-17
2022/05/01 09:28:51;;;;;;;1.00;1.00;;;20.10;47.70;;;;;;4974658;28;20046;-17
2022/05/01 09:31:18;;;;;;;1.55;1.23;;;20.20;48.10;;;;;;4974172;28;20043;-17
2022/05/01 09:33:43;;;;;;;0.90;0.90;;;20.10;48.80;;;;;;4975533;28;20117;-16
2022/05/01 09:36:30;;;;;;;1.20;1.20;;;20.20;47.60;;;;;;4975722;28;20062;-17
2022/05/01 09:39:03;;;;;;;1.73;1.45;;;20.20;47.40;;;;;;4965699;28;20417;-17
2022/05/01 09:41:29;;;;;;;0.98;0.98;;;20.20;48.40;;;;;;4972807;28;20141;-17
2022/05/01 09:43:54;;;;;;;1.60;1.10;;;20.20;47.10;;;;;;4976497;28;20093;-17
2022/05/01 09:46:25;;;;;;;0.90;0.90;;;20.20;48.20;;;;;;4974772;28;20050;-17
2022/05/01 09:48:57;;;;;;;1.33;1.00;;;20.20;46.80;;;;;;4976101;28;20057;-16
2022/05/01 09:51:23;;;;;;;1.00;1.00;;;20.30;47.60;;;;;;4974803;28;20042;-17
2022/05/01 09:53:49;;;;;;;1.40;1.02;;;20.30;47.00;;;;;;4975478;28;20051;-16
2022/05/01 09:56:14;;;;;;;1.05;0.82;;;20.20;47.20;;;;;;4976481;28;20050;-16
2022/05/01 09:58:40;;;;;;;0.90;0.90;;;20.30;47.40;;;;;;4974272;28;20511;-16
2022/05/01 10:01:11;;;;;;;1.15;1.05;;;20.30;46.90;;;;;;4976334;28;20046;-16
2022/05/01 10:03:41;;;;;;;1.10;1.10;;;20.30;46.80;;;;;;4999519;28;20082;-17
2022/05/01 10:06:10;;;;;;;1.30;1.20;;;20.30;46.60;;;;;;4975295;28;20070;-17
2022/05/01 10:08:38;;;;;;;0.98;0.88;;;20.30;46.80;;;;;;4971489;28;20117;-17
2022/05/01 10:11:04;;;;;;;1.10;1.00;;;20.30;46.50;;;;;;4976104;28;20120;-17
2022/05/01 10:13:30;;;;;;;0.90;0.90;;;20.30;46.50;;;;;;4974363;28;20039;-17
2022/05/01 10:15:55;;;;;;;0.80;0.80;;;20.30;46.90;;;;;;4974234;28;20043;-16
2022/05/01 10:18:22;;;;;;;1.10;1.00;;;20.40;47.40;;;;;;4975949;28;20045;-17
2022/05/01 10:20:48;;;;;;;1.00;0.90;;;20.30;46.70;;;;;;4973960;28;20623;-17
2022/05/01 10:23:13;;;;;;;0.93;0.93;;;20.40;46.80;;;;;;4975915;28;20472;-17
2022/05/01 10:25:45;;;;;;;1.00;1.00;;;20.40;46.60;;;;;;4974537;28;20066;-17
2022/05/01 10:28:17;;;;;;;1.25;0.90;;;20.40;46.30;;;;;;4972781;28;20043;-17
2022/05/01 10:35:09;;;;;;;0.80;0.80;;;20.50;46.20;;;;;;4974652;28;20057;-16
2022/05/01 10:38:07;;;;;;;1.10;0.90;;;20.50;46.00;;;;;;4948109;28;20035;-17
2022/05/01 10:40:54;;;;;;;0.90;0.88;;;20.60;46.60;;;;;;4982684;28;20122;-16
2022/05/01 10:43:24;;;;;;;2.05;0.80;;;20.60;46.10;;;;;;4971940;28;20539;-16
2022/05/01 10:45:51;;;;;;;1.10;1.00;;;20.60;46.80;;;;;;4975180;28;20045;-17
2022/05/01 10:48:29;;;;;;;0.90;0.90;;;20.60;46.00;;;;;;4973324;28;20046;-16
2022/05/01 10:50:55;;;;;;;1.10;0.77;;;20.60;46.60;;;;;;4622068;28;10000011;-16
2022/05/01 10:53:20;;;;;;;1.00;1.00;;;20.60;46.80;;;;;;4971103;28;20047;-17
2022/05/01 10:55:52;;;;;;;1.13;1.13;;;20.60;46.30;;;;;;4969597;28;20059;-15
2022/05/01 10:58:27;;;;;;;1.38;0.77;;;20.70;46.30;;;;;;4963908;28;20547;-17
2022/05/01 11:00:54;;;;;;;0.70;0.70;;;20.60;46.50;;;;;;4972435;28;20043;-17
2022/05/01 11:03:27;;;;;;;1.48;0.90;;;20.60;46.50;;;;;;4967989;28;20062;-17
2022/05/01 11:06:04;;;;;;;1.00;1.00;;;20.70;46.60;;;;;;4963763;28;20062;-16
2022/05/01 11:08:39;;;;;;;0.85;0.82;;;20.60;46.10;;;;;;4961943;28;20058;-18
2022/05/01 11:11:07;;;;;;;1.58;0.80;;;20.60;46.60;;;;;;4965101;28;20074;-17
2022/05/01 11:13:36;;;;;;;0.88;0.80;;;20.60;46.50;;;;;;4963930;28;20049;-16
2022/05/01 11:16:02;;;;;;;0.70;0.70;;;20.60;46.50;;;;;;4975394;28;20057;-17
2022/05/01 11:18:28;;;;;;;0.80;0.80;;;20.70;46.50;;;;;;4961432;28;20043;-17
2022/05/01 11:20:54;;;;;;;0.98;0.98;;;20.70;46.60;;;;;;4970479;28;20046;-17
2022/05/01 11:23:31;;;;;;;0.70;0.70;;;20.70;46.00;;;;;;4958477;28;20089;-16
2022/05/01 11:26:07;;;;;;;0.98;0.68;;;20.70;46.50;;;;;;4965858;28;20046;-17
2022/05/01 11:28:46;;;;;;;1.90;0.80;;;20.70;46.60;;;;;;4974563;28;20650;-18
2022/05/01 11:31:39;;;;;;;0.93;0.70;;;20.70;46.80;;;;;;4975942;28;20522;-16
2022/05/01 11:34:20;;;;;;;0.68;0.68;;;20.70;46.80;;;;;;4961570;28;20047;-17
2022/05/01 11:37:01;;;;;;;0.80;0.80;;;20.70;46.80;;;;;;4960777;28;20046;-16
2022/05/01 11:39:45;;;;;;;0.82;0.82;;;20.70;47.00;;;;;;4976305;28;20504;-16
2022/05/01 11:42:26;;;;;;;1.27;0.68;;;20.70;47.00;;;;;;4975655;28;20051;-17
2022/05/01 11:44:52;;;;;;;0.93;0.93;;;20.70;47.10;;;;;;4975541;28;20129;-17
2022/05/01 11:47:25;;;;;;;0.80;0.80;;;20.70;47.20;;;;;;4975418;28;20051;-17
2022/05/01 11:49:50;;;;;;;0.63;0.63;;;20.70;47.20;;;;;;4975625;28;20448;-17
2022/05/01 11:52:16;;;;;;;0.65;0.65;;;20.70;47.20;;;;;;4975197;28;20050;-17
2022/05/01 11:55:06;;;;;;;0.60;0.60;;;20.80;47.20;;;;;;4975363;28;20057;-17
2022/05/01 12:03:04;;;;;;;1.02;1.00;;;20.80;47.50;;;;;;4978331;28;20050;-16
2022/05/01 12:05:40;;;;;;;0.70;0.70;;;20.80;47.60;;;;;;4979550;28;20090;-17
2022/05/01 12:08:06;;;;;;;0.60;0.50;;;20.80;47.60;;;;;;4966450;28;20134;-17
2022/05/01 12:10:32;;;;;;;0.90;0.90;;;20.80;47.70;;;;;;4960347;28;20146;-18
2022/05/01 12:12:57;;;;;;;1.42;0.90;;;20.80;47.70;;;;;;4959530;28;20453;-17
2022/05/01 12:15:23;;;;;;;1.10;1.00;;;20.80;47.80;;;;;;4965950;28;20047;-16
2022/05/01 12:17:48;;;;;;;0.88;0.80;;;20.80;47.80;;;;;;4977614;28;20071;-16
2022/05/01 12:20:14;;;;;;;1.30;1.30;;;20.80;47.90;;;;;;4979411;28;20046;-16
2022/05/01 12:22:39;;;;;;;1.00;1.00;;;20.80;47.80;;;;;;4976788;28;20412;-16
2022/05/01 12:25:11;;;;;;;1.23;0.75;;;20.80;48.00;;;;;;4979121;28;20050;-16
2022/05/01 12:27:40;;;;;;;0.88;0.88;;;20.80;48.10;;;;;;4959790;28;20043;-17
2022/05/01 12:30:07;;;;;;;0.93;0.82;;;20.80;48.00;;;;;;4960488;28;20039;-16
2022/05/01 12:32:33;;;;;;;0.95;0.95;;;20.80;48.00;;;;;;4959914;28;20047;-16
2022/05/01 12:35:00;;;;;;;0.95;0.95;;;20.80;48.00;;;;;;4965762;28;20053;-17
2022/05/01 12:37:30;;;;;;;1.00;1.00;;;20.80;48.10;;;;;;4979065;28;20047;-17
2022/05/01 12:40:12;;;;;;;0.90;0.90;;;20.80;48.10;;;;;;4971544;28;20050;-17
2022/05/01 12:45:45;;;;;;;0.77;0.77;;;20.80;48.10;;;;;;4962403;28;20519;-16
2022/05/01 12:48:11;;;;;;;0.80;0.80;;;20.80;48.20;;;;;;4978585;28;20045;-16
2022/05/01 12:50:38;;;;;;;1.00;1.00;;;20.80;48.30;;;;;;4977469;28;20443;-17
2022/05/01 12:53:29;;;;;;;1.20;1.20;;;20.80;48.30;;;;;;4978746;28;20075;-17
2022/05/01 12:55:58;;;;;;;0.80;0.80;;;20.80;48.30;;;;;;4977442;28;20243;-17
2022/05/01 12:58:30;;;;;;;1.02;1.02;;;20.80;48.30;;;;;;4977427;28;20043;-17
2022/05/01 13:00:56;;;;;;;0.77;0.77;;;20.80;48.50;;;;;;4977219;28;20062;-17
2022/05/01 13:03:24;;;;;;;0.80;0.80;;;20.80;48.40;;;;;;4976535;28;20555;-16
2022/05/01 13:06:08;;;;;;;0.82;0.82;;;20.80;48.30;;;;;;4969590;28;20039;-17
2022/05/01 13:08:44;;;;;;;0.80;0.80;;;20.80;48.40;;;;;;4959136;28;20054;-16
2022/05/01 13:11:27;;;;;;;0.77;0.77;;;20.90;49.10;;;;;;4958840;28;20047;-17
2022/05/01 13:13:55;;;;;;;0.75;0.75;;;20.90;48.40;;;;;;4963346;28;20046;-17
2022/05/01 13:16:33;;;;;;;0.88;0.88;;;20.90;48.40;;;;;;4973567;28;20046;-17
2022/05/01 13:19:09;;;;;;;0.90;0.90;;;20.80;48.30;;;;;;4977101;28;20114;-17
2022/05/01 13:21:40;;;;;;;0.90;0.90;;;20.80;48.40;;;;;;4978342;28;20046;-16
2022/05/01 13:24:12;;;;;;;0.93;0.93;;;20.80;48.40;;;;;;4977258;28;20070;-17
2022/05/01 13:26:37;;;;;;;1.23;0.93;;;20.80;48.40;;;;;;4977779;28;20093;-17
2022/05/01 13:29:07;;;;;;;1.00;1.00;;;20.90;48.40;;;;;;4978198;28;20042;-16
2022/05/01 13:31:36;;;;;;;0.60;0.60;;;20.90;48.50;;;;;;4977239;28;20141;-17